GLO1992 SBRJ-SBJV
Flight info
| Callsign | GLO1992 |
|---|---|
| Flight time | 1h 10m |
| Altitude | 34000 |
| Route | NAXOP UZ45 RAXIT |
| Aircraft | B738/M-SDE2E3FGHIRWXY/LB1 |
Departure
| Time | 2026-04-19 22:36 |
|---|---|
| Airport | Santos Dumont Airport (SBRJ) |
Arrival
| Time | 2026-04-19 23:46 |
|---|---|
| Airport | Lauro Carneiro de Loyola Airport (SBJV) |
| Time | Latitude | Longitude | Altitude | Speed | Heading |
|---|---|---|---|---|---|
| 2026-04-19 22:04 | -22.91209 | -43.16580 | 21 ft | 0 kts | 267° |
| 2026-04-19 22:26 | -22.91208 | -43.16571 | 21 ft | 2 kts | 265° |
| 2026-04-19 22:26 | -22.91208 | -43.16553 | 25 ft | 2 kts | 269° |
| 2026-04-19 22:26 | -22.91208 | -43.16535 | 25 ft | 2 kts | 274° |
| 2026-04-19 22:26 | -22.91211 | -43.16517 | 21 ft | 2 kts | 317° |
| 2026-04-19 22:27 | -22.91222 | -43.16512 | 21 ft | 1 kts | 354° |
| 2026-04-19 22:27 | -22.91223 | -43.16511 | 24 ft | 0 kts | 354° |
| 2026-04-19 22:30 | -22.91204 | -43.16513 | 24 ft | 5 kts | 354° |
| 2026-04-19 22:30 | -22.91167 | -43.16517 | 21 ft | 5 kts | 355° |
| 2026-04-19 22:31 | -22.91131 | -43.16520 | 21 ft | 5 kts | 352° |
| 2026-04-19 22:31 | -22.91095 | -43.16529 | 22 ft | 5 kts | 348° |
| 2026-04-19 22:31 | -22.91053 | -43.16535 | 21 ft | 8 kts | 354° |
| 2026-04-19 22:31 | -22.90981 | -43.16541 | 22 ft | 13 kts | 356° |
| 2026-04-19 22:32 | -22.90890 | -43.16548 | 21 ft | 13 kts | 356° |
| 2026-04-19 22:32 | -22.90803 | -43.16544 | 21 ft | 13 kts | 5° |
| 2026-04-19 22:32 | -22.90717 | -43.16546 | 23 ft | 12 kts | 357° |
| 2026-04-19 22:32 | -22.90633 | -43.16551 | 21 ft | 12 kts | 357° |
| 2026-04-19 22:33 | -22.90551 | -43.16556 | 21 ft | 11 kts | 356° |
| 2026-04-19 22:33 | -22.90503 | -43.16528 | 22 ft | 8 kts | 72° |
| 2026-04-19 22:33 | -22.90499 | -43.16504 | 21 ft | 0 kts | 83° |
| 2026-04-19 22:34 | -22.90499 | -43.16501 | 21 ft | 2 kts | 83° |
| 2026-04-19 22:34 | -22.90496 | -43.16467 | 22 ft | 7 kts | 84° |
| 2026-04-19 22:35 | -22.90490 | -43.16418 | 23 ft | 6 kts | 77° |
| 2026-04-19 22:35 | -22.90477 | -43.16372 | 24 ft | 6 kts | 72° |
| 2026-04-19 22:35 | -22.90482 | -43.16329 | 23 ft | 6 kts | 139° |
| 2026-04-19 22:35 | -22.90699 | -43.16304 | 24 ft | 75 kts | 178° |
| 2026-04-19 22:36 | -22.91516 | -43.16255 | 33 ft | 156 kts | 178° |
| 2026-04-19 22:36 | -22.92630 | -43.16191 | 853 ft | 168 kts | 175° |
| 2026-04-19 22:36 | -22.93728 | -43.15695 | 1819 ft | 178 kts | 132° |
| 2026-04-19 22:36 | -22.94550 | -43.14560 | 2603 ft | 204 kts | 129° |
| 2026-04-19 22:37 | -22.95465 | -43.13264 | 3121 ft | 228 kts | 131° |
| 2026-04-19 22:37 | -22.96599 | -43.12026 | 3974 ft | 234 kts | 139° |
| 2026-04-19 22:37 | -22.97829 | -43.10848 | 4910 ft | 237 kts | 142° |
| 2026-04-19 22:37 | -22.99287 | -43.10041 | 5771 ft | 238 kts | 172° |
| 2026-04-19 22:38 | -23.00917 | -43.10170 | 6711 ft | 235 kts | 204° |
| 2026-04-19 22:38 | -23.02310 | -43.11058 | 7554 ft | 234 kts | 219° |
| 2026-04-19 22:38 | -23.03576 | -43.12188 | 8312 ft | 237 kts | 222° |
| 2026-04-19 22:38 | -23.04836 | -43.13350 | 9111 ft | 239 kts | 222° |
| 2026-04-19 22:39 | -23.06111 | -43.14515 | 9915 ft | 241 kts | 222° |
| 2026-04-19 22:39 | -23.07373 | -43.15722 | 10628 ft | 242 kts | 232° |
| 2026-04-19 22:39 | -23.08125 | -43.17339 | 11333 ft | 242 kts | 250° |
| 2026-04-19 22:39 | -23.08691 | -43.19067 | 12060 ft | 244 kts | 250° |
| 2026-04-19 22:40 | -23.09255 | -43.20822 | 12784 ft | 247 kts | 250° |
| 2026-04-19 22:40 | -23.09821 | -43.22575 | 13521 ft | 249 kts | 250° |
| 2026-04-19 22:40 | -23.10407 | -43.24373 | 14196 ft | 252 kts | 250° |
| 2026-04-19 22:40 | -23.10990 | -43.26148 | 14840 ft | 254 kts | 250° |
| 2026-04-19 22:41 | -23.11590 | -43.27964 | 15482 ft | 257 kts | 250° |
| 2026-04-19 22:41 | -23.12199 | -43.29799 | 16128 ft | 259 kts | 250° |
| 2026-04-19 22:41 | -23.12816 | -43.31651 | 16775 ft | 262 kts | 250° |
| 2026-04-19 22:41 | -23.13442 | -43.33524 | 17405 ft | 266 kts | 250° |
| 2026-04-19 22:42 | -23.14091 | -43.35465 | 17671 ft | 284 kts | 250° |
| 2026-04-19 22:42 | -23.14792 | -43.37557 | 17851 ft | 303 kts | 250° |
| 2026-04-19 22:42 | -23.15538 | -43.39783 | 18008 ft | 323 kts | 250° |
| 2026-04-19 22:42 | -23.16330 | -43.42145 | 18150 ft | 342 kts | 250° |
| 2026-04-19 22:43 | -23.17156 | -43.44609 | 18278 ft | 359 kts | 250° |
| 2026-04-19 22:43 | -23.18043 | -43.47254 | 18389 ft | 375 kts | 250° |
| 2026-04-19 22:43 | -23.18945 | -43.49946 | 18668 ft | 383 kts | 250° |
| 2026-04-19 22:43 | -23.19849 | -43.52643 | 19142 ft | 385 kts | 250° |
| 2026-04-19 22:44 | -23.20767 | -43.55383 | 19689 ft | 385 kts | 250° |
| 2026-04-19 22:44 | -23.21687 | -43.58130 | 20187 ft | 387 kts | 250° |
| 2026-04-19 22:44 | -23.22608 | -43.60885 | 20653 ft | 390 kts | 250° |
| 2026-04-19 22:44 | -23.23538 | -43.63664 | 21117 ft | 392 kts | 250° |
| 2026-04-19 22:45 | -23.24472 | -43.66461 | 21594 ft | 394 kts | 250° |
| 2026-04-19 22:45 | -23.25410 | -43.69270 | 22071 ft | 396 kts | 249° |
| 2026-04-19 22:45 | -23.26349 | -43.72085 | 22529 ft | 398 kts | 249° |
| 2026-04-19 22:45 | -23.27295 | -43.74922 | 22963 ft | 400 kts | 249° |
| 2026-04-19 22:46 | -23.28246 | -43.77775 | 23400 ft | 402 kts | 249° |
| 2026-04-19 22:46 | -23.29200 | -43.80641 | 23784 ft | 404 kts | 249° |
| 2026-04-19 22:46 | -23.30158 | -43.83520 | 24167 ft | 405 kts | 249° |
| 2026-04-19 22:46 | -23.31116 | -43.86402 | 24550 ft | 406 kts | 249° |
| 2026-04-19 22:47 | -23.32077 | -43.89293 | 24923 ft | 407 kts | 249° |
| 2026-04-19 22:47 | -23.33039 | -43.92192 | 25285 ft | 408 kts | 249° |
| 2026-04-19 22:47 | -23.34003 | -43.95095 | 25642 ft | 409 kts | 249° |
| 2026-04-19 22:47 | -23.34974 | -43.98023 | 25981 ft | 411 kts | 249° |
| 2026-04-19 22:48 | -23.35921 | -44.00885 | 26703 ft | 400 kts | 249° |
| 2026-04-19 22:48 | -23.36838 | -44.03658 | 27943 ft | 378 kts | 249° |
| 2026-04-19 22:48 | -23.37698 | -44.06267 | 29274 ft | 356 kts | 249° |
| 2026-04-19 22:48 | -23.38511 | -44.08730 | 30534 ft | 334 kts | 248° |
| 2026-04-19 22:49 | -23.39275 | -44.11047 | 31472 ft | 318 kts | 248° |
| 2026-04-19 22:49 | -23.40017 | -44.13293 | 31997 ft | 314 kts | 248° |
| 2026-04-19 22:49 | -23.40762 | -44.15545 | 32291 ft | 316 kts | 248° |
| 2026-04-19 22:49 | -23.41510 | -44.17803 | 32580 ft | 318 kts | 248° |
| 2026-04-19 22:50 | -23.42255 | -44.20057 | 32992 ft | 315 kts | 247° |
| 2026-04-19 22:50 | -23.43001 | -44.22318 | 33121 ft | 322 kts | 247° |
| 2026-04-19 22:50 | -23.43768 | -44.24640 | 33201 ft | 329 kts | 247° |
| 2026-04-19 22:50 | -23.44550 | -44.27010 | 33359 ft | 334 kts | 247° |
| 2026-04-19 22:51 | -23.45337 | -44.29399 | 33645 ft | 335 kts | 247° |
| 2026-04-19 22:51 | -23.46912 | -44.34193 | 34012 ft | 342 kts | 247° |
| 2026-04-19 22:51 | -23.47710 | -44.36621 | 34032 ft | 347 kts | 247° |
| 2026-04-19 22:52 | -23.49366 | -44.41663 | 34044 ft | 360 kts | 247° |
| 2026-04-19 22:52 | -23.51080 | -44.46890 | 34046 ft | 372 kts | 247° |
| 2026-04-19 22:53 | -23.52846 | -44.52285 | 34047 ft | 383 kts | 247° |
| 2026-04-19 22:53 | -23.54660 | -44.57836 | 34044 ft | 394 kts | 247° |
| 2026-04-19 22:54 | -23.56520 | -44.63535 | 34041 ft | 403 kts | 247° |
| 2026-04-19 22:54 | -23.58411 | -44.69339 | 34043 ft | 410 kts | 247° |
| 2026-04-19 22:55 | -23.60319 | -44.75202 | 34039 ft | 414 kts | 247° |
| 2026-04-19 22:55 | -23.62240 | -44.81120 | 34036 ft | 414 kts | 247° |
| 2026-04-19 22:56 | -23.64164 | -44.87048 | 34038 ft | 414 kts | 247° |
| 2026-04-19 22:56 | -23.66084 | -44.92973 | 34039 ft | 413 kts | 247° |
| 2026-04-19 22:57 | -23.67995 | -44.98880 | 34037 ft | 413 kts | 247° |
| 2026-04-19 22:57 | -23.69900 | -45.04775 | 34049 ft | 412 kts | 247° |
| 2026-04-19 22:58 | -23.71800 | -45.10665 | 34048 ft | 411 kts | 247° |
| 2026-04-19 22:58 | -23.73698 | -45.16555 | 34047 ft | 411 kts | 247° |
| 2026-04-19 22:59 | -23.75589 | -45.22439 | 34045 ft | 410 kts | 248° |
| 2026-04-19 22:59 | -23.77038 | -45.28453 | 34042 ft | 412 kts | 252° |
| 2026-04-19 23:00 | -23.78349 | -45.34530 | 34054 ft | 411 kts | 252° |
| 2026-04-19 23:00 | -23.79672 | -45.40611 | 34048 ft | 412 kts | 252° |
| 2026-04-19 23:01 | -23.81008 | -45.46692 | 34055 ft | 412 kts | 252° |
| 2026-04-19 23:01 | -23.82344 | -45.52789 | 34056 ft | 413 kts | 252° |
| 2026-04-19 23:02 | -23.83679 | -45.58892 | 34051 ft | 413 kts | 252° |
| 2026-04-19 23:02 | -23.85002 | -45.64948 | 34049 ft | 413 kts | 252° |
| 2026-04-19 23:03 | -23.86338 | -45.71033 | 34050 ft | 412 kts | 252° |
| 2026-04-19 23:03 | -23.87670 | -45.77121 | 34047 ft | 412 kts | 252° |
| 2026-04-19 23:04 | -23.88999 | -45.83232 | 34051 ft | 413 kts | 252° |
| 2026-04-19 23:04 | -23.90328 | -45.89347 | 34054 ft | 414 kts | 252° |
| 2026-04-19 23:05 | -23.91660 | -45.95485 | 34051 ft | 415 kts | 252° |
| 2026-04-19 23:05 | -23.92990 | -46.01625 | 34051 ft | 416 kts | 252° |
| 2026-04-19 23:06 | -23.94323 | -46.07789 | 34045 ft | 417 kts | 252° |
| 2026-04-19 23:06 | -23.95647 | -46.13927 | 34045 ft | 417 kts | 252° |
| 2026-04-19 23:07 | -23.96981 | -46.20119 | 34053 ft | 418 kts | 252° |
| 2026-04-19 23:07 | -23.98327 | -46.26312 | 34066 ft | 418 kts | 251° |
| 2026-04-19 23:08 | -24.00178 | -46.32309 | 34042 ft | 416 kts | 247° |
| 2026-04-19 23:08 | -24.02110 | -46.38250 | 34048 ft | 417 kts | 247° |
| 2026-04-19 23:09 | -24.04032 | -46.44244 | 34042 ft | 417 kts | 248° |
| 2026-04-19 23:09 | -24.05939 | -46.50239 | 34051 ft | 418 kts | 248° |
| 2026-04-19 23:10 | -24.07536 | -46.55267 | 34059 ft | 418 kts | 248° |
| 2026-04-19 23:10 | -24.09432 | -46.61243 | 34052 ft | 418 kts | 248° |
| 2026-04-19 23:11 | -24.11339 | -46.67262 | 34054 ft | 419 kts | 248° |
| 2026-04-19 23:11 | -24.13245 | -46.73289 | 34056 ft | 419 kts | 248° |
| 2026-04-19 23:12 | -24.15152 | -46.79326 | 34047 ft | 420 kts | 248° |
| 2026-04-19 23:12 | -24.17059 | -46.85375 | 34056 ft | 420 kts | 248° |
| 2026-04-19 23:13 | -24.18967 | -46.91434 | 34056 ft | 421 kts | 248° |
| 2026-04-19 23:13 | -24.20873 | -46.97500 | 34051 ft | 421 kts | 248° |
| 2026-04-19 23:14 | -24.22732 | -47.03425 | 34055 ft | 422 kts | 248° |
| 2026-04-19 23:14 | -24.24637 | -47.09509 | 34049 ft | 422 kts | 248° |
| 2026-04-19 23:15 | -24.26539 | -47.15600 | 34046 ft | 423 kts | 249° |
| 2026-04-19 23:15 | -24.28350 | -47.21760 | 34044 ft | 424 kts | 249° |
| 2026-04-19 23:16 | -24.30128 | -47.27928 | 34050 ft | 424 kts | 249° |
| 2026-04-19 23:16 | -24.31913 | -47.34096 | 34047 ft | 425 kts | 249° |
| 2026-04-19 23:17 | -24.33697 | -47.40241 | 34047 ft | 425 kts | 249° |
| 2026-04-19 23:17 | -24.35493 | -47.46433 | 34038 ft | 426 kts | 249° |
| 2026-04-19 23:18 | -24.37289 | -47.52634 | 34050 ft | 426 kts | 249° |
| 2026-04-19 23:18 | -24.39079 | -47.58829 | 34042 ft | 426 kts | 249° |
| 2026-04-19 23:19 | -24.40872 | -47.65038 | 34031 ft | 427 kts | 249° |
| 2026-04-19 23:19 | -24.42062 | -47.67955 | 34037 ft | 421 kts | 237° |
| 2026-04-19 23:19 | -24.43814 | -47.70503 | 34032 ft | 418 kts | 225° |
| 2026-04-19 23:20 | -24.48314 | -47.74488 | 34035 ft | 416 kts | 217° |
| 2026-04-19 23:20 | -24.50653 | -47.76367 | 33660 ft | 421 kts | 217° |
| 2026-04-19 23:20 | -24.53025 | -47.78267 | 33041 ft | 420 kts | 217° |
| 2026-04-19 23:21 | -24.55380 | -47.80167 | 32323 ft | 419 kts | 217° |
| 2026-04-19 23:21 | -24.57720 | -47.82070 | 31715 ft | 417 kts | 218° |
| 2026-04-19 23:21 | -24.60037 | -47.83968 | 31191 ft | 413 kts | 218° |
| 2026-04-19 23:21 | -24.62330 | -47.85856 | 30673 ft | 409 kts | 218° |
| 2026-04-19 23:22 | -24.64600 | -47.87730 | 30152 ft | 406 kts | 218° |
| 2026-04-19 23:22 | -24.66846 | -47.89587 | 29552 ft | 403 kts | 218° |
| 2026-04-19 23:22 | -24.69053 | -47.91413 | 29009 ft | 399 kts | 218° |
| 2026-04-19 23:22 | -24.71259 | -47.93239 | 28465 ft | 395 kts | 218° |
| 2026-04-19 23:23 | -24.73445 | -47.95050 | 27937 ft | 391 kts | 218° |
| 2026-04-19 23:23 | -24.75607 | -47.96841 | 27430 ft | 387 kts | 218° |
| 2026-04-19 23:23 | -24.77748 | -47.98614 | 26929 ft | 383 kts | 218° |
| 2026-04-19 23:23 | -24.79871 | -48.00375 | 26428 ft | 380 kts | 218° |
| 2026-04-19 23:24 | -24.81975 | -48.02121 | 25921 ft | 377 kts | 218° |
| 2026-04-19 23:24 | -24.84066 | -48.03856 | 25451 ft | 375 kts | 218° |
| 2026-04-19 23:24 | -24.86123 | -48.05564 | 24944 ft | 372 kts | 218° |
| 2026-04-19 23:24 | -24.88161 | -48.07255 | 24467 ft | 370 kts | 217° |
| 2026-04-19 23:25 | -24.90224 | -48.08970 | 23957 ft | 370 kts | 217° |
| 2026-04-19 23:25 | -24.92270 | -48.10672 | 23426 ft | 368 kts | 217° |
| 2026-04-19 23:25 | -24.94316 | -48.12373 | 22885 ft | 366 kts | 217° |
| 2026-04-19 23:25 | -24.96339 | -48.14056 | 22388 ft | 363 kts | 217° |
| 2026-04-19 23:26 | -24.98346 | -48.15726 | 21883 ft | 360 kts | 217° |
| 2026-04-19 23:26 | -25.00336 | -48.17384 | 21413 ft | 358 kts | 217° |
| 2026-04-19 23:26 | -25.02321 | -48.19037 | 20937 ft | 355 kts | 217° |
| 2026-04-19 23:26 | -25.04288 | -48.20676 | 20463 ft | 353 kts | 217° |
| 2026-04-19 23:27 | -25.06214 | -48.22283 | 20009 ft | 351 kts | 217° |
| 2026-04-19 23:27 | -25.08159 | -48.23906 | 19543 ft | 349 kts | 217° |
| 2026-04-19 23:27 | -25.10090 | -48.25516 | 19062 ft | 349 kts | 217° |
| 2026-04-19 23:27 | -25.12030 | -48.27135 | 18596 ft | 348 kts | 217° |
| 2026-04-19 23:28 | -25.13962 | -48.28748 | 18084 ft | 347 kts | 217° |
| 2026-04-19 23:28 | -25.15884 | -48.30352 | 17583 ft | 345 kts | 217° |
| 2026-04-19 23:28 | -25.17790 | -48.31945 | 17119 ft | 343 kts | 217° |
| 2026-04-19 23:28 | -25.19682 | -48.33529 | 16821 ft | 338 kts | 217° |
| 2026-04-19 23:29 | -25.21560 | -48.35102 | 16544 ft | 341 kts | 217° |
| 2026-04-19 23:29 | -25.23478 | -48.36707 | 16268 ft | 348 kts | 217° |
| 2026-04-19 23:29 | -25.25569 | -48.38033 | 15975 ft | 348 kts | 202° |
| 2026-04-19 23:29 | -25.27929 | -48.38633 | 15682 ft | 350 kts | 189° |
| 2026-04-19 23:30 | -25.30353 | -48.38955 | 15399 ft | 351 kts | 188° |
| 2026-04-19 23:30 | -25.32774 | -48.39262 | 15112 ft | 350 kts | 188° |
| 2026-04-19 23:30 | -25.35185 | -48.39577 | 14838 ft | 348 kts | 189° |
| 2026-04-19 23:30 | -25.37545 | -48.39906 | 14557 ft | 344 kts | 189° |
| 2026-04-19 23:31 | -25.39908 | -48.40245 | 14308 ft | 344 kts | 189° |
| 2026-04-19 23:31 | -25.42294 | -48.40588 | 14040 ft | 345 kts | 189° |
| 2026-04-19 23:31 | -25.44679 | -48.40931 | 13684 ft | 344 kts | 189° |
| 2026-04-19 23:31 | -25.47046 | -48.41270 | 13335 ft | 341 kts | 189° |
| 2026-04-19 23:32 | -25.49396 | -48.41607 | 12990 ft | 339 kts | 189° |
| 2026-04-19 23:32 | -25.51729 | -48.41942 | 12662 ft | 336 kts | 188° |
| 2026-04-19 23:32 | -25.54046 | -48.42275 | 12342 ft | 335 kts | 188° |
| 2026-04-19 23:32 | -25.56351 | -48.42606 | 12020 ft | 333 kts | 188° |
| 2026-04-19 23:33 | -25.58648 | -48.42935 | 11704 ft | 332 kts | 188° |
| 2026-04-19 23:33 | -25.60832 | -48.43546 | 11377 ft | 325 kts | 204° |
| 2026-04-19 23:33 | -25.62708 | -48.44886 | 11079 ft | 320 kts | 221° |
| 2026-04-19 23:33 | -25.64268 | -48.46615 | 10797 ft | 315 kts | 225° |
| 2026-04-19 23:34 | -25.65751 | -48.48384 | 10480 ft | 311 kts | 226° |
| 2026-04-19 23:34 | -25.67207 | -48.50140 | 10193 ft | 307 kts | 226° |
| 2026-04-19 23:34 | -25.68643 | -48.51863 | 10005 ft | 299 kts | 226° |
| 2026-04-19 23:34 | -25.70012 | -48.53496 | 9999 ft | 285 kts | 225° |
| 2026-04-19 23:35 | -25.71338 | -48.55068 | 9963 ft | 273 kts | 225° |
| 2026-04-19 23:35 | -25.72623 | -48.56585 | 9600 ft | 267 kts | 225° |
| 2026-04-19 23:35 | -25.73902 | -48.58092 | 9079 ft | 268 kts | 225° |
| 2026-04-19 23:35 | -25.75176 | -48.59592 | 8623 ft | 266 kts | 226° |
| 2026-04-19 23:36 | -25.76437 | -48.61077 | 8314 ft | 264 kts | 226° |
| 2026-04-19 23:36 | -25.77698 | -48.62562 | 8055 ft | 264 kts | 226° |
| 2026-04-19 23:36 | -25.78951 | -48.64037 | 7800 ft | 262 kts | 226° |
| 2026-04-19 23:36 | -25.80203 | -48.65510 | 7553 ft | 261 kts | 226° |
| 2026-04-19 23:37 | -25.81489 | -48.66885 | 7281 ft | 260 kts | 216° |
| 2026-04-19 23:37 | -25.83007 | -48.67942 | 7051 ft | 257 kts | 210° |
| 2026-04-19 23:37 | -25.84559 | -48.68914 | 6808 ft | 255 kts | 210° |
| 2026-04-19 23:37 | -25.86094 | -48.69888 | 6573 ft | 253 kts | 210° |
| 2026-04-19 23:38 | -25.87571 | -48.70843 | 6514 ft | 237 kts | 211° |
| 2026-04-19 23:38 | -25.88942 | -48.71737 | 6373 ft | 218 kts | 211° |
| 2026-04-19 23:38 | -25.90197 | -48.72560 | 6245 ft | 200 kts | 211° |
| 2026-04-19 23:38 | -25.91351 | -48.73318 | 6098 ft | 185 kts | 211° |
| 2026-04-19 23:39 | -25.92482 | -48.74062 | 5595 ft | 191 kts | 211° |
| 2026-04-19 23:39 | -25.93609 | -48.74803 | 5291 ft | 189 kts | 210° |
| 2026-04-19 23:39 | -25.94719 | -48.75534 | 5083 ft | 181 kts | 210° |
| 2026-04-19 23:39 | -25.95782 | -48.76234 | 4888 ft | 176 kts | 210° |
| 2026-04-19 23:40 | -25.96834 | -48.76927 | 4723 ft | 177 kts | 210° |
| 2026-04-19 23:40 | -25.97904 | -48.77633 | 4556 ft | 181 kts | 210° |
| 2026-04-19 23:40 | -25.98996 | -48.78353 | 4384 ft | 184 kts | 210° |
| 2026-04-19 23:40 | -26.00091 | -48.79076 | 4194 ft | 183 kts | 210° |
| 2026-04-19 23:41 | -26.01185 | -48.79798 | 4005 ft | 182 kts | 210° |
| 2026-04-19 23:41 | -26.02266 | -48.80512 | 3818 ft | 181 kts | 210° |
| 2026-04-19 23:41 | -26.03345 | -48.81224 | 3648 ft | 179 kts | 210° |
| 2026-04-19 23:41 | -26.04412 | -48.81928 | 3480 ft | 178 kts | 210° |
| 2026-04-19 23:42 | -26.05468 | -48.82626 | 3324 ft | 174 kts | 210° |
| 2026-04-19 23:42 | -26.06499 | -48.83307 | 3136 ft | 171 kts | 210° |
| 2026-04-19 23:42 | -26.07513 | -48.83977 | 2969 ft | 171 kts | 210° |
| 2026-04-19 23:42 | -26.08537 | -48.84653 | 2807 ft | 172 kts | 210° |
| 2026-04-19 23:43 | -26.09557 | -48.85327 | 2647 ft | 172 kts | 210° |
| 2026-04-19 23:43 | -26.10600 | -48.86016 | 2469 ft | 172 kts | 210° |
| 2026-04-19 23:43 | -26.11634 | -48.86642 | 2284 ft | 171 kts | 196° |
| 2026-04-19 23:43 | -26.12777 | -48.86541 | 2164 ft | 164 kts | 161° |
| 2026-04-19 23:44 | -26.13871 | -48.86235 | 1986 ft | 160 kts | 166° |
| 2026-04-19 23:44 | -26.14943 | -48.85970 | 1813 ft | 157 kts | 166° |
| 2026-04-19 23:44 | -26.16012 | -48.85703 | 1674 ft | 158 kts | 166° |
| 2026-04-19 23:44 | -26.17087 | -48.85434 | 1519 ft | 158 kts | 166° |
| 2026-04-19 23:45 | -26.18008 | -48.84842 | 1336 ft | 153 kts | 131° |
| 2026-04-19 23:45 | -26.18771 | -48.83988 | 1086 ft | 156 kts | 135° |
| 2026-04-19 23:45 | -26.19548 | -48.83171 | 835 ft | 150 kts | 136° |
| 2026-04-19 23:45 | -26.20301 | -48.82406 | 558 ft | 143 kts | 138° |
| 2026-04-19 23:46 | -26.21014 | -48.81665 | 301 ft | 139 kts | 132° |
| 2026-04-19 23:46 | -26.21638 | -48.80853 | 125 ft | 139 kts | 126° |
| 2026-04-19 23:46 | -26.22228 | -48.80028 | 33 ft | 126 kts | 129° |
| 2026-04-19 23:46 | -26.22682 | -48.79411 | 25 ft | 47 kts | 129° |
| 2026-04-19 23:47 | -26.22785 | -48.79265 | 24 ft | 23 kts | 129° |
| 2026-04-19 23:47 | -26.22847 | -48.79178 | 28 ft | 13 kts | 120° |
| 2026-04-19 23:47 | -26.22863 | -48.79138 | 27 ft | 0 kts | 155° |
| 2026-04-19 23:47 | -26.22871 | -48.79146 | 28 ft | 4 kts | 242° |
| 2026-04-19 23:48 | -26.22856 | -48.79172 | 29 ft | 5 kts | 311° |
| 2026-04-19 23:48 | -26.22816 | -48.79228 | 24 ft | 16 kts | 309° |
| 2026-04-19 23:48 | -26.22732 | -48.79344 | 24 ft | 21 kts | 309° |